This is the latest recevied weather packets stored in our database for station/object AB2HM. If no packets are shown the sender has not sent any weather packets the latest 10 day(s).
| Time | Temp. | Humidity | Pressure | Rain* | Wind** | Luminosity | Snow |
|---|---|---|---|---|---|---|---|
| 1778030333 | 22.22° C | 54% | 1011.8 hPa | 0 mm | - | - | - |
| 1778028525 | 22.78° C | 52% | 1011.5 hPa | 0 mm | - | - | - |
| 1778026715 | 23.89° C | 46% | 1011.1 hPa | 0 mm | - | - | - |
| 1778024908 | 25.56° C | 40% | 1011 hPa | 0 mm | - | - | - |
| 1778023100 | 26.67° C | 35% | 1010.6 hPa | 0 mm | - | - | - |
| 1778021296 | 27.22° C | 34% | 1010.5 hPa | 0 mm | - | - | - |
| 1778019490 | 27.78° C | 32% | 1010.6 hPa | 0 mm | - | - | - |
| 1778017690 | 28.89° C | 30% | 1010.5 hPa | 0 mm | - | - | - |
| 1778015885 | 28.89° C | 28% | 1010.1 hPa | 0 mm | - | - | - |
| 1778014079 | 29.44° C | 24% | 1010 hPa | 0 mm | - | - | - |
| 1778012274 | 30° C | 22% | 1009.8 hPa | 0 mm | - | - | - |
| 1778010465 | 30° C | 25% | 1010.1 hPa | 0 mm | - | - | - |
| 1778008662 | 29.44° C | 28% | 1010.2 hPa | 0 mm | - | - | - |
| 1778006863 | 29.44° C | 29% | 1010.7 hPa | 0 mm | - | - | - |
| 1778005058 | 28.89° C | 30% | 1011 hPa | 0 mm | - | - | - |
| 1778003250 | 28.89° C | 33% | 1011.3 hPa | 0 mm | - | - | - |
| 1778001438 | 28.33° C | 33% | 1011.6 hPa | 0 mm | - | - | - |
| 1777999634 | 27.78° C | 36% | 1011.9 hPa | 0 mm | - | - | - |
| 1777997830 | 27.78° C | 36% | 1012 hPa | 0 mm | - | - | - |
| 1777996014 | 26.11° C | 40% | 1012.4 hPa | 0 mm | - | - | - |
| 1777994213 | 25.56° C | 42% | 1012.6 hPa | 0 mm | - | - | - |
| 1777992414 | 24.44° C | 45% | 1012.5 hPa | 0 mm | - | - | - |
| 1777990616 | 23.33° C | 46% | 1012.9 hPa | 0 mm | - | - | - |
| 1777988804 | 22.22° C | 49% | 1012.9 hPa | 0 mm | - | - | - |
| 1777987002 | 21.11° C | 53% | 1013.1 hPa | 0 mm | - | - | - |
* Rain latest hour (hover to see other rain measurements)
** Current wind speed in m/s (hover to see current wind gust speed)